sensor_id;sensor_type;location;lat;lon;timestamp;P1;durP1;ratioP1;P2;durP2;ratioP2
20731;SDS011;10527;52.124;5.196;2024-01-07T00:00:39;9.70;;;7.30;;
20731;SDS011;10527;52.124;5.196;2024-01-07T00:03:07;9.03;;;7.37;;
20731;SDS011;10527;52.124;5.196;2024-01-07T00:05:35;8.03;;;6.87;;
20731;SDS011;10527;52.124;5.196;2024-01-07T00:08:04;9.53;;;7.43;;
20731;SDS011;10527;52.124;5.196;2024-01-07T00:10:31;9.97;;;8.27;;
20731;SDS011;10527;52.124;5.196;2024-01-07T00:12:59;8.47;;;7.57;;
20731;SDS011;10527;52.124;5.196;2024-01-07T00:15:27;10.00;;;8.30;;
20731;SDS011;10527;52.124;5.196;2024-01-07T00:17:54;9.83;;;8.47;;
20731;SDS011;10527;52.124;5.196;2024-01-07T00:20:22;9.97;;;8.33;;
20731;SDS011;10527;52.124;5.196;2024-01-07T00:22:50;10.17;;;8.50;;
20731;SDS011;10527;52.124;5.196;2024-01-07T00:25:17;10.83;;;8.07;;
20731;SDS011;10527;52.124;5.196;2024-01-07T00:27:45;9.07;;;7.70;;
20731;SDS011;10527;52.124;5.196;2024-01-07T00:30:12;9.87;;;7.93;;
20731;SDS011;10527;52.124;5.196;2024-01-07T00:32:40;10.03;;;8.00;;
20731;SDS011;10527;52.124;5.196;2024-01-07T00:35:08;9.27;;;8.00;;
20731;SDS011;10527;52.124;5.196;2024-01-07T00:37:35;9.40;;;8.37;;
20731;SDS011;10527;52.124;5.196;2024-01-07T00:40:04;8.80;;;7.83;;
20731;SDS011;10527;52.124;5.196;2024-01-07T00:42:32;10.83;;;7.97;;
20731;SDS011;10527;52.124;5.196;2024-01-07T00:45:00;11.03;;;8.97;;
20731;SDS011;10527;52.124;5.196;2024-01-07T00:47:29;10.63;;;8.40;;
20731;SDS011;10527;52.124;5.196;2024-01-07T00:49:57;10.80;;;8.73;;
20731;SDS011;10527;52.124;5.196;2024-01-07T00:52:24;10.77;;;8.43;;
20731;SDS011;10527;52.124;5.196;2024-01-07T00:54:52;10.07;;;7.97;;
20731;SDS011;10527;52.124;5.196;2024-01-07T00:57:19;11.00;;;8.70;;
20731;SDS011;10527;52.124;5.196;2024-01-07T00:59:46;12.20;;;8.77;;
20731;SDS011;10527;52.124;5.196;2024-01-07T01:02:14;11.03;;;8.63;;
20731;SDS011;10527;52.124;5.196;2024-01-07T01:04:41;10.00;;;8.30;;
20731;SDS011;10527;52.124;5.196;2024-01-07T01:07:09;10.20;;;9.13;;
20731;SDS011;10527;52.124;5.196;2024-01-07T01:09:36;9.60;;;8.20;;
20731;SDS011;10527;52.124;5.196;2024-01-07T01:12:04;12.33;;;9.27;;
20731;SDS011;10527;52.124;5.196;2024-01-07T01:14:32;8.67;;;7.33;;
20731;SDS011;10527;52.124;5.196;2024-01-07T01:17:00;10.43;;;8.60;;
20731;SDS011;10527;52.124;5.196;2024-01-07T01:19:27;9.93;;;8.67;;
20731;SDS011;10527;52.124;5.196;2024-01-07T01:21:55;9.17;;;8.17;;
20731;SDS011;10527;52.124;5.196;2024-01-07T01:24:23;10.70;;;8.57;;
20731;SDS011;10527;52.124;5.196;2024-01-07T01:26:50;9.17;;;8.10;;
20731;SDS011;10527;52.124;5.196;2024-01-07T01:29:18;8.80;;;7.60;;
20731;SDS011;10527;52.124;5.196;2024-01-07T01:31:46;9.00;;;7.73;;
20731;SDS011;10527;52.124;5.196;2024-01-07T01:34:13;9.27;;;7.77;;
20731;SDS011;10527;52.124;5.196;2024-01-07T01:36:41;10.03;;;7.83;;
20731;SDS011;10527;52.124;5.196;2024-01-07T01:39:09;9.47;;;7.40;;
20731;SDS011;10527;52.124;5.196;2024-01-07T01:41:37;9.00;;;8.10;;
20731;SDS011;10527;52.124;5.196;2024-01-07T01:44:04;9.13;;;7.80;;
20731;SDS011;10527;52.124;5.196;2024-01-07T01:46:32;8.37;;;7.47;;
20731;SDS011;10527;52.124;5.196;2024-01-07T01:49:00;8.70;;;7.73;;
20731;SDS011;10527;52.124;5.196;2024-01-07T01:51:28;9.73;;;7.77;;
20731;SDS011;10527;52.124;5.196;2024-01-07T01:53:56;9.90;;;8.00;;
20731;SDS011;10527;52.124;5.196;2024-01-07T01:56:24;10.07;;;7.70;;
20731;SDS011;10527;52.124;5.196;2024-01-07T01:58:53;9.93;;;8.17;;
20731;SDS011;10527;52.124;5.196;2024-01-07T02:01:24;8.70;;;7.57;;
20731;SDS011;10527;52.124;5.196;2024-01-07T02:03:52;10.40;;;8.33;;
20731;SDS011;10527;52.124;5.196;2024-01-07T02:06:21;10.40;;;7.93;;
20731;SDS011;10527;52.124;5.196;2024-01-07T02:08:49;10.57;;;7.80;;
20731;SDS011;10527;52.124;5.196;2024-01-07T02:11:18;10.77;;;8.53;;
20731;SDS011;10527;52.124;5.196;2024-01-07T02:13:47;11.53;;;8.73;;
20731;SDS011;10527;52.124;5.196;2024-01-07T02:16:15;10.73;;;8.30;;
20731;SDS011;10527;52.124;5.196;2024-01-07T02:18:44;11.30;;;9.33;;
20731;SDS011;10527;52.124;5.196;2024-01-07T02:21:12;11.20;;;8.27;;
20731;SDS011;10527;52.124;5.196;2024-01-07T02:23:41;11.37;;;8.97;;
20731;SDS011;10527;52.124;5.196;2024-01-07T02:26:08;10.90;;;8.60;;
20731;SDS011;10527;52.124;5.196;2024-01-07T02:28:36;13.67;;;9.63;;
20731;SDS011;10527;52.124;5.196;2024-01-07T02:31:03;11.40;;;9.23;;
20731;SDS011;10527;52.124;5.196;2024-01-07T02:33:31;14.63;;;9.90;;
20731;SDS011;10527;52.124;5.196;2024-01-07T02:35:59;15.93;;;11.33;;
20731;SDS011;10527;52.124;5.196;2024-01-07T02:38:26;12.43;;;10.23;;
20731;SDS011;10527;52.124;5.196;2024-01-07T02:40:54;15.00;;;11.47;;
20731;SDS011;10527;52.124;5.196;2024-01-07T02:43:21;16.90;;;12.23;;
20731;SDS011;10527;52.124;5.196;2024-01-07T02:45:48;14.87;;;10.87;;
20731;SDS011;10527;52.124;5.196;2024-01-07T02:48:16;15.37;;;11.23;;
20731;SDS011;10527;52.124;5.196;2024-01-07T02:50:44;16.40;;;11.17;;
20731;SDS011;10527;52.124;5.196;2024-01-07T02:53:12;15.10;;;10.90;;
20731;SDS011;10527;52.124;5.196;2024-01-07T02:55:39;15.47;;;11.57;;
20731;SDS011;10527;52.124;5.196;2024-01-07T02:58:07;14.37;;;11.37;;
20731;SDS011;10527;52.124;5.196;2024-01-07T03:00:34;16.93;;;11.53;;
20731;SDS011;10527;52.124;5.196;2024-01-07T03:03:02;14.93;;;11.20;;
20731;SDS011;10527;52.124;5.196;2024-01-07T03:05:30;14.40;;;10.87;;
20731;SDS011;10527;52.124;5.196;2024-01-07T03:07:59;14.67;;;11.13;;
20731;SDS011;10527;52.124;5.196;2024-01-07T03:10:26;16.23;;;11.50;;
20731;SDS011;10527;52.124;5.196;2024-01-07T03:12:54;15.93;;;10.83;;
20731;SDS011;10527;52.124;5.196;2024-01-07T03:15:22;14.80;;;10.63;;
20731;SDS011;10527;52.124;5.196;2024-01-07T03:17:49;15.50;;;11.60;;
20731;SDS011;10527;52.124;5.196;2024-01-07T03:20:17;12.60;;;10.10;;
20731;SDS011;10527;52.124;5.196;2024-01-07T03:22:44;13.77;;;11.03;;
20731;SDS011;10527;52.124;5.196;2024-01-07T03:25:12;14.73;;;10.83;;
20731;SDS011;10527;52.124;5.196;2024-01-07T03:27:40;15.03;;;11.37;;
20731;SDS011;10527;52.124;5.196;2024-01-07T03:30:08;13.93;;;11.17;;
20731;SDS011;10527;52.124;5.196;2024-01-07T03:32:36;13.80;;;10.30;;
20731;SDS011;10527;52.124;5.196;2024-01-07T03:35:03;14.67;;;10.63;;
20731;SDS011;10527;52.124;5.196;2024-01-07T03:37:31;13.97;;;9.80;;
20731;SDS011;10527;52.124;5.196;2024-01-07T03:39:59;12.50;;;9.47;;
20731;SDS011;10527;52.124;5.196;2024-01-07T03:42:26;12.63;;;10.10;;
20731;SDS011;10527;52.124;5.196;2024-01-07T03:44:54;12.77;;;10.00;;
20731;SDS011;10527;52.124;5.196;2024-01-07T03:47:22;15.17;;;10.13;;
20731;SDS011;10527;52.124;5.196;2024-01-07T03:49:50;13.73;;;11.20;;
20731;SDS011;10527;52.124;5.196;2024-01-07T03:52:17;13.97;;;11.00;;
20731;SDS011;10527;52.124;5.196;2024-01-07T03:54:45;14.47;;;10.37;;
20731;SDS011;10527;52.124;5.196;2024-01-07T03:57:13;13.10;;;9.77;;
20731;SDS011;10527;52.124;5.196;2024-01-07T03:59:40;11.40;;;9.70;;
20731;SDS011;10527;52.124;5.196;2024-01-07T04:02:09;15.33;;;10.87;;
20731;SDS011;10527;52.124;5.196;2024-01-07T04:04:38;13.70;;;10.17;;
20731;SDS011;10527;52.124;5.196;2024-01-07T04:07:05;14.07;;;10.63;;
20731;SDS011;10527;52.124;5.196;2024-01-07T04:09:33;17.27;;;12.20;;
20731;SDS011;10527;52.124;5.196;2024-01-07T04:12:00;15.90;;;10.50;;
20731;SDS011;10527;52.124;5.196;2024-01-07T04:14:28;17.67;;;12.43;;
20731;SDS011;10527;52.124;5.196;2024-01-07T04:16:55;18.83;;;12.63;;
20731;SDS011;10527;52.124;5.196;2024-01-07T04:19:23;18.57;;;12.40;;
20731;SDS011;10527;52.124;5.196;2024-01-07T04:21:50;19.27;;;12.87;;
20731;SDS011;10527;52.124;5.196;2024-01-07T04:24:18;18.70;;;12.70;;
20731;SDS011;10527;52.124;5.196;2024-01-07T04:26:46;17.20;;;13.27;;
20731;SDS011;10527;52.124;5.196;2024-01-07T04:29:13;16.70;;;12.70;;
20731;SDS011;10527;52.124;5.196;2024-01-07T04:31:40;20.80;;;13.60;;
20731;SDS011;10527;52.124;5.196;2024-01-07T04:34:08;18.03;;;12.97;;
20731;SDS011;10527;52.124;5.196;2024-01-07T04:36:36;19.23;;;13.43;;
20731;SDS011;10527;52.124;5.196;2024-01-07T04:39:04;19.80;;;14.53;;
20731;SDS011;10527;52.124;5.196;2024-01-07T04:41:31;21.83;;;14.30;;
20731;SDS011;10527;52.124;5.196;2024-01-07T04:43:59;18.50;;;12.90;;
20731;SDS011;10527;52.124;5.196;2024-01-07T04:46:26;17.03;;;13.27;;
20731;SDS011;10527;52.124;5.196;2024-01-07T04:48:54;14.60;;;11.80;;
20731;SDS011;10527;52.124;5.196;2024-01-07T04:51:22;16.97;;;12.10;;
20731;SDS011;10527;52.124;5.196;2024-01-07T04:53:49;14.63;;;11.30;;
20731;SDS011;10527;52.124;5.196;2024-01-07T04:56:17;16.83;;;13.30;;
20731;SDS011;10527;52.124;5.196;2024-01-07T04:58:45;15.90;;;12.10;;
20731;SDS011;10527;52.124;5.196;2024-01-07T05:01:12;15.50;;;11.43;;
20731;SDS011;10527;52.124;5.196;2024-01-07T05:03:40;15.00;;;11.33;;
20731;SDS011;10527;52.124;5.196;2024-01-07T05:06:08;13.97;;;10.90;;
20731;SDS011;10527;52.124;5.196;2024-01-07T05:08:36;15.03;;;10.70;;
20731;SDS011;10527;52.124;5.196;2024-01-07T05:11:07;16.53;;;11.70;;
20731;SDS011;10527;52.124;5.196;2024-01-07T05:13:35;12.67;;;10.53;;
20731;SDS011;10527;52.124;5.196;2024-01-07T05:16:02;12.70;;;10.17;;
20731;SDS011;10527;52.124;5.196;2024-01-07T05:18:30;13.60;;;10.13;;
20731;SDS011;10527;52.124;5.196;2024-01-07T05:20:57;14.33;;;10.27;;
20731;SDS011;10527;52.124;5.196;2024-01-07T05:23:25;12.67;;;9.57;;
20731;SDS011;10527;52.124;5.196;2024-01-07T05:25:52;12.50;;;9.73;;
20731;SDS011;10527;52.124;5.196;2024-01-07T05:28:20;13.53;;;10.37;;
20731;SDS011;10527;52.124;5.196;2024-01-07T05:30:48;14.63;;;10.37;;
20731;SDS011;10527;52.124;5.196;2024-01-07T05:33:16;12.20;;;10.07;;
20731;SDS011;10527;52.124;5.196;2024-01-07T05:35:43;14.07;;;9.87;;
20731;SDS011;10527;52.124;5.196;2024-01-07T05:38:11;11.57;;;9.30;;
20731;SDS011;10527;52.124;5.196;2024-01-07T05:40:38;12.07;;;9.60;;
20731;SDS011;10527;52.124;5.196;2024-01-07T05:43:06;13.23;;;10.17;;
20731;SDS011;10527;52.124;5.196;2024-01-07T05:45:34;11.43;;;8.63;;
20731;SDS011;10527;52.124;5.196;2024-01-07T05:48:02;12.30;;;9.20;;
20731;SDS011;10527;52.124;5.196;2024-01-07T05:50:29;11.93;;;9.23;;
20731;SDS011;10527;52.124;5.196;2024-01-07T05:52:57;13.13;;;9.60;;
20731;SDS011;10527;52.124;5.196;2024-01-07T05:55:24;12.47;;;10.13;;
20731;SDS011;10527;52.124;5.196;2024-01-07T05:57:52;13.13;;;9.77;;
20731;SDS011;10527;52.124;5.196;2024-01-07T06:00:20;12.57;;;8.90;;
20731;SDS011;10527;52.124;5.196;2024-01-07T06:02:47;12.60;;;9.47;;
20731;SDS011;10527;52.124;5.196;2024-01-07T06:05:15;11.90;;;10.00;;
20731;SDS011;10527;52.124;5.196;2024-01-07T06:07:42;13.73;;;9.37;;
20731;SDS011;10527;52.124;5.196;2024-01-07T06:10:10;13.83;;;10.70;;
20731;SDS011;10527;52.124;5.196;2024-01-07T06:12:38;15.83;;;10.93;;
20731;SDS011;10527;52.124;5.196;2024-01-07T06:15:05;13.27;;;10.57;;
20731;SDS011;10527;52.124;5.196;2024-01-07T06:17:33;14.30;;;11.13;;
20731;SDS011;10527;52.124;5.196;2024-01-07T06:20:00;14.00;;;10.97;;
20731;SDS011;10527;52.124;5.196;2024-01-07T06:22:29;16.07;;;11.40;;
20731;SDS011;10527;52.124;5.196;2024-01-07T06:24:57;13.90;;;11.10;;
20731;SDS011;10527;52.124;5.196;2024-01-07T06:27:24;13.90;;;9.70;;
20731;SDS011;10527;52.124;5.196;2024-01-07T06:29:52;15.17;;;10.57;;
20731;SDS011;10527;52.124;5.196;2024-01-07T06:32:39;13.17;;;10.53;;
20731;SDS011;10527;52.124;5.196;2024-01-07T06:35:13;12.10;;;9.93;;
20731;SDS011;10527;52.124;5.196;2024-01-07T06:38:04;15.00;;;10.27;;
20731;SDS011;10527;52.124;5.196;2024-01-07T06:40:32;10.50;;;8.90;;
20731;SDS011;10527;52.124;5.196;2024-01-07T06:42:59;13.53;;;9.97;;
20731;SDS011;10527;52.124;5.196;2024-01-07T06:45:27;11.83;;;9.40;;
20731;SDS011;10527;52.124;5.196;2024-01-07T06:47:55;11.93;;;9.57;;
20731;SDS011;10527;52.124;5.196;2024-01-07T06:50:22;11.27;;;8.90;;
20731;SDS011;10527;52.124;5.196;2024-01-07T06:52:50;13.07;;;8.77;;
20731;SDS011;10527;52.124;5.196;2024-01-07T06:55:17;11.03;;;9.40;;
20731;SDS011;10527;52.124;5.196;2024-01-07T06:57:45;9.93;;;8.47;;
20731;SDS011;10527;52.124;5.196;2024-01-07T07:00:13;12.53;;;10.00;;
20731;SDS011;10527;52.124;5.196;2024-01-07T07:02:40;11.80;;;8.77;;
20731;SDS011;10527;52.124;5.196;2024-01-07T07:05:08;12.33;;;9.40;;
20731;SDS011;10527;52.124;5.196;2024-01-07T07:07:35;11.97;;;8.77;;
20731;SDS011;10527;52.124;5.196;2024-01-07T07:10:03;13.53;;;9.07;;
20731;SDS011;10527;52.124;5.196;2024-01-07T07:12:31;12.37;;;8.83;;
20731;SDS011;10527;52.124;5.196;2024-01-07T07:14:59;10.67;;;8.47;;
20731;SDS011;10527;52.124;5.196;2024-01-07T07:17:26;12.03;;;8.83;;
20731;SDS011;10527;52.124;5.196;2024-01-07T07:19:54;11.83;;;9.37;;
20731;SDS011;10527;52.124;5.196;2024-01-07T07:22:22;12.17;;;8.40;;
20731;SDS011;10527;52.124;5.196;2024-01-07T07:24:49;9.87;;;8.57;;
20731;SDS011;10527;52.124;5.196;2024-01-07T07:27:17;11.80;;;9.17;;
20731;SDS011;10527;52.124;5.196;2024-01-07T07:29:44;9.07;;;8.07;;
20731;SDS011;10527;52.124;5.196;2024-01-07T07:32:12;11.47;;;8.73;;
20731;SDS011;10527;52.124;5.196;2024-01-07T07:34:39;10.60;;;9.07;;
20731;SDS011;10527;52.124;5.196;2024-01-07T07:37:07;12.60;;;8.80;;
20731;SDS011;10527;52.124;5.196;2024-01-07T07:39:35;9.90;;;8.53;;
20731;SDS011;10527;52.124;5.196;2024-01-07T07:42:03;11.50;;;9.13;;
20731;SDS011;10527;52.124;5.196;2024-01-07T07:44:31;9.23;;;7.33;;
20731;SDS011;10527;52.124;5.196;2024-01-07T07:46:58;11.10;;;8.10;;
20731;SDS011;10527;52.124;5.196;2024-01-07T07:49:26;10.80;;;8.30;;
20731;SDS011;10527;52.124;5.196;2024-01-07T07:51:54;10.13;;;8.10;;
20731;SDS011;10527;52.124;5.196;2024-01-07T07:54:23;12.60;;;9.00;;
20731;SDS011;10527;52.124;5.196;2024-01-07T07:56:51;11.33;;;8.37;;
20731;SDS011;10527;52.124;5.196;2024-01-07T07:59:18;11.40;;;7.77;;
20731;SDS011;10527;52.124;5.196;2024-01-07T08:01:46;10.40;;;8.07;;
20731;SDS011;10527;52.124;5.196;2024-01-07T08:04:13;13.00;;;9.17;;
20731;SDS011;10527;52.124;5.196;2024-01-07T08:06:41;10.17;;;8.47;;
20731;SDS011;10527;52.124;5.196;2024-01-07T08:09:09;10.93;;;7.97;;
20731;SDS011;10527;52.124;5.196;2024-01-07T08:11:50;11.90;;;9.33;;
20731;SDS011;10527;52.124;5.196;2024-01-07T08:14:18;11.63;;;8.40;;
20731;SDS011;10527;52.124;5.196;2024-01-07T08:16:46;10.73;;;8.50;;
20731;SDS011;10527;52.124;5.196;2024-01-07T08:19:13;9.70;;;8.60;;
20731;SDS011;10527;52.124;5.196;2024-01-07T08:21:41;10.70;;;8.73;;
20731;SDS011;10527;52.124;5.196;2024-01-07T08:24:08;10.07;;;8.70;;
20731;SDS011;10527;52.124;5.196;2024-01-07T08:26:36;11.30;;;8.77;;
20731;SDS011;10527;52.124;5.196;2024-01-07T08:29:04;9.33;;;8.00;;
20731;SDS011;10527;52.124;5.196;2024-01-07T08:31:32;9.83;;;7.77;;
20731;SDS011;10527;52.124;5.196;2024-01-07T08:34:00;11.07;;;8.60;;
20731;SDS011;10527;52.124;5.196;2024-01-07T08:36:28;12.53;;;8.30;;
20731;SDS011;10527;52.124;5.196;2024-01-07T08:38:56;9.30;;;7.90;;
20731;SDS011;10527;52.124;5.196;2024-01-07T08:41:23;10.20;;;8.37;;
20731;SDS011;10527;52.124;5.196;2024-01-07T08:43:50;9.60;;;8.20;;
20731;SDS011;10527;52.124;5.196;2024-01-07T08:46:21;8.67;;;7.80;;
20731;SDS011;10527;52.124;5.196;2024-01-07T08:48:49;10.43;;;8.60;;
20731;SDS011;10527;52.124;5.196;2024-01-07T08:51:17;9.77;;;8.10;;
20731;SDS011;10527;52.124;5.196;2024-01-07T08:53:45;9.33;;;8.13;;
20731;SDS011;10527;52.124;5.196;2024-01-07T08:56:13;10.13;;;7.80;;
20731;SDS011;10527;52.124;5.196;2024-01-07T08:58:41;8.83;;;7.37;;
20731;SDS011;10527;52.124;5.196;2024-01-07T09:01:31;9.40;;;7.67;;
20731;SDS011;10527;52.124;5.196;2024-01-07T09:03:58;9.20;;;8.13;;
20731;SDS011;10527;52.124;5.196;2024-01-07T09:06:26;10.10;;;7.90;;
20731;SDS011;10527;52.124;5.196;2024-01-07T09:08:54;9.53;;;7.20;;
20731;SDS011;10527;52.124;5.196;2024-01-07T09:11:21;9.47;;;6.47;;
20731;SDS011;10527;52.124;5.196;2024-01-07T09:13:52;9.13;;;7.00;;
20731;SDS011;10527;52.124;5.196;2024-01-07T09:16:22;8.40;;;6.47;;
20731;SDS011;10527;52.124;5.196;2024-01-07T09:18:50;8.40;;;6.80;;
20731;SDS011;10527;52.124;5.196;2024-01-07T09:21:18;9.47;;;7.37;;
20731;SDS011;10527;52.124;5.196;2024-01-07T09:23:45;9.00;;;6.53;;
20731;SDS011;10527;52.124;5.196;2024-01-07T09:26:12;10.80;;;7.60;;
20731;SDS011;10527;52.124;5.196;2024-01-07T09:28:40;10.23;;;8.03;;
20731;SDS011;10527;52.124;5.196;2024-01-07T09:31:12;9.20;;;8.03;;
20731;SDS011;10527;52.124;5.196;2024-01-07T09:33:40;10.80;;;8.03;;
20731;SDS011;10527;52.124;5.196;2024-01-07T09:36:10;9.27;;;7.53;;
20731;SDS011;10527;52.124;5.196;2024-01-07T09:38:54;12.07;;;8.07;;
20731;SDS011;10527;52.124;5.196;2024-01-07T09:41:22;15.25;;;9.80;;
20731;SDS011;10527;52.124;5.196;2024-01-07T09:43:50;10.17;;;7.97;;
20731;SDS011;10527;52.124;5.196;2024-01-07T09:46:19;9.63;;;6.73;;
20731;SDS011;10527;52.124;5.196;2024-01-07T09:48:48;7.63;;;6.37;;
20731;SDS011;10527;52.124;5.196;2024-01-07T09:51:16;7.10;;;6.10;;
20731;SDS011;10527;52.124;5.196;2024-01-07T09:53:48;8.93;;;7.60;;
20731;SDS011;10527;52.124;5.196;2024-01-07T09:56:20;8.13;;;6.23;;
20731;SDS011;10527;52.124;5.196;2024-01-07T09:58:51;8.93;;;6.00;;
20731;SDS011;10527;52.124;5.196;2024-01-07T10:01:19;9.23;;;6.20;;
20731;SDS011;10527;52.124;5.196;2024-01-07T10:03:47;6.80;;;5.43;;
20731;SDS011;10527;52.124;5.196;2024-01-07T10:06:17;7.03;;;5.07;;
20731;SDS011;10527;52.124;5.196;2024-01-07T10:08:46;7.13;;;5.47;;
20731;SDS011;10527;52.124;5.196;2024-01-07T10:11:14;8.23;;;5.80;;
20731;SDS011;10527;52.124;5.196;2024-01-07T10:13:42;10.90;;;5.87;;
20731;SDS011;10527;52.124;5.196;2024-01-07T10:16:14;7.77;;;5.60;;
20731;SDS011;10527;52.124;5.196;2024-01-07T10:18:41;6.87;;;4.77;;
20731;SDS011;10527;52.124;5.196;2024-01-07T10:21:09;7.40;;;4.90;;
20731;SDS011;10527;52.124;5.196;2024-01-07T10:23:37;7.73;;;4.40;;
20731;SDS011;10527;52.124;5.196;2024-01-07T10:26:04;7.20;;;4.53;;
20731;SDS011;10527;52.124;5.196;2024-01-07T10:28:45;6.17;;;3.60;;
20731;SDS011;10527;52.124;5.196;2024-01-07T10:31:12;9.70;;;4.40;;
20731;SDS011;10527;52.124;5.196;2024-01-07T10:33:40;7.90;;;3.97;;
20731;SDS011;10527;52.124;5.196;2024-01-07T10:36:08;6.63;;;3.57;;
20731;SDS011;10527;52.124;5.196;2024-01-07T10:38:37;5.77;;;3.70;;
20731;SDS011;10527;52.124;5.196;2024-01-07T10:41:10;5.23;;;3.60;;
20731;SDS011;10527;52.124;5.196;2024-01-07T10:43:39;5.13;;;3.37;;
20731;SDS011;10527;52.124;5.196;2024-01-07T10:46:09;5.27;;;3.60;;
20731;SDS011;10527;52.124;5.196;2024-01-07T10:48:38;5.37;;;3.67;;
20731;SDS011;10527;52.124;5.196;2024-01-07T10:51:09;6.17;;;3.63;;
20731;SDS011;10527;52.124;5.196;2024-01-07T10:53:39;6.00;;;3.77;;
20731;SDS011;10527;52.124;5.196;2024-01-07T10:56:11;3.40;;;2.93;;
20731;SDS011;10527;52.124;5.196;2024-01-07T10:58:39;4.83;;;2.77;;
20731;SDS011;10527;52.124;5.196;2024-01-07T11:01:08;4.63;;;3.23;;
20731;SDS011;10527;52.124;5.196;2024-01-07T11:09:35;4.03;;;3.00;;
20731;SDS011;10527;52.124;5.196;2024-01-07T11:12:11;3.70;;;2.83;;
20731;SDS011;10527;52.124;5.196;2024-01-07T11:14:43;4.67;;;2.77;;
20731;SDS011;10527;52.124;5.196;2024-01-07T11:17:39;3.17;;;2.67;;
20731;SDS011;10527;52.124;5.196;2024-01-07T11:20:19;3.00;;;2.70;;
20731;SDS011;10527;52.124;5.196;2024-01-07T11:22:48;4.13;;;3.00;;
20731;SDS011;10527;52.124;5.196;2024-01-07T11:25:29;3.67;;;2.63;;
20731;SDS011;10527;52.124;5.196;2024-01-07T11:27:58;5.10;;;3.27;;
20731;SDS011;10527;52.124;5.196;2024-01-07T11:30:28;4.23;;;3.00;;
20731;SDS011;10527;52.124;5.196;2024-01-07T11:33:04;4.43;;;3.43;;
20731;SDS011;10527;52.124;5.196;2024-01-07T11:38:28;3.03;;;2.53;;
20731;SDS011;10527;52.124;5.196;2024-01-07T11:40:57;4.23;;;2.70;;
20731;SDS011;10527;52.124;5.196;2024-01-07T11:43:26;4.60;;;2.77;;
20731;SDS011;10527;52.124;5.196;2024-01-07T11:45:55;4.47;;;2.60;;
20731;SDS011;10527;52.124;5.196;2024-01-07T11:48:22;4.90;;;2.37;;
20731;SDS011;10527;52.124;5.196;2024-01-07T11:50:50;3.33;;;2.30;;
20731;SDS011;10527;52.124;5.196;2024-01-07T11:53:21;3.83;;;2.40;;
20731;SDS011;10527;52.124;5.196;2024-01-07T11:55:48;3.00;;;2.67;;
20731;SDS011;10527;52.124;5.196;2024-01-07T11:58:16;3.23;;;2.37;;
20731;SDS011;10527;52.124;5.196;2024-01-07T12:00:44;3.17;;;2.07;;
20731;SDS011;10527;52.124;5.196;2024-01-07T12:03:12;3.27;;;2.00;;
20731;SDS011;10527;52.124;5.196;2024-01-07T12:05:42;2.97;;;2.27;;
20731;SDS011;10527;52.124;5.196;2024-01-07T12:08:10;3.07;;;2.10;;
20731;SDS011;10527;52.124;5.196;2024-01-07T12:10:37;2.83;;;2.17;;
20731;SDS011;10527;52.124;5.196;2024-01-07T12:13:05;3.17;;;1.93;;
20731;SDS011;10527;52.124;5.196;2024-01-07T12:15:35;3.67;;;2.30;;
20731;SDS011;10527;52.124;5.196;2024-01-07T12:18:02;2.97;;;2.03;;
20731;SDS011;10527;52.124;5.196;2024-01-07T12:20:31;2.47;;;1.70;;
20731;SDS011;10527;52.124;5.196;2024-01-07T12:23:07;3.10;;;1.97;;
20731;SDS011;10527;52.124;5.196;2024-01-07T12:25:39;2.60;;;1.60;;
20731;SDS011;10527;52.124;5.196;2024-01-07T12:28:11;2.70;;;1.70;;
20731;SDS011;10527;52.124;5.196;2024-01-07T12:31:17;2.77;;;1.77;;
20731;SDS011;10527;52.124;5.196;2024-01-07T12:33:46;2.40;;;1.67;;
20731;SDS011;10527;52.124;5.196;2024-01-07T12:36:13;2.17;;;1.67;;
20731;SDS011;10527;52.124;5.196;2024-01-07T12:38:41;4.20;;;1.80;;
20731;SDS011;10527;52.124;5.196;2024-01-07T12:41:09;2.93;;;1.67;;
20731;SDS011;10527;52.124;5.196;2024-01-07T12:43:37;1.87;;;1.30;;
20731;SDS011;10527;52.124;5.196;2024-01-07T12:46:04;2.33;;;1.60;;
20731;SDS011;10527;52.124;5.196;2024-01-07T12:48:32;1.90;;;1.40;;
20731;SDS011;10527;52.124;5.196;2024-01-07T12:51:00;2.83;;;1.23;;
20731;SDS011;10527;52.124;5.196;2024-01-07T12:53:31;2.57;;;1.40;;
20731;SDS011;10527;52.124;5.196;2024-01-07T12:56:08;1.90;;;1.70;;
20731;SDS011;10527;52.124;5.196;2024-01-07T12:59:50;2.67;;;1.27;;
20731;SDS011;10527;52.124;5.196;2024-01-07T13:03:03;1.50;;;1.40;;
20731;SDS011;10527;52.124;5.196;2024-01-07T13:09:38;1.77;;;1.60;;
20731;SDS011;10527;52.124;5.196;2024-01-07T13:12:47;2.13;;;1.40;;
20731;SDS011;10527;52.124;5.196;2024-01-07T13:20:02;3.63;;;1.53;;
20731;SDS011;10527;52.124;5.196;2024-01-07T13:23:41;1.87;;;1.50;;
20731;SDS011;10527;52.124;5.196;2024-01-07T13:26:51;3.40;;;1.50;;
20731;SDS011;10527;52.124;5.196;2024-01-07T13:30:02;2.33;;;1.17;;
20731;SDS011;10527;52.124;5.196;2024-01-07T13:33:11;2.47;;;1.60;;
20731;SDS011;10527;52.124;5.196;2024-01-07T13:43:38;2.20;;;1.43;;
20731;SDS011;10527;52.124;5.196;2024-01-07T13:46:07;1.77;;;1.40;;
20731;SDS011;10527;52.124;5.196;2024-01-07T13:48:35;1.80;;;1.20;;
20731;SDS011;10527;52.124;5.196;2024-01-07T13:51:05;2.60;;;1.20;;
20731;SDS011;10527;52.124;5.196;2024-01-07T13:53:33;3.40;;;1.60;;
20731;SDS011;10527;52.124;5.196;2024-01-07T13:56:02;1.50;;;1.40;;
20731;SDS011;10527;52.124;5.196;2024-01-07T13:58:29;2.17;;;1.47;;
20731;SDS011;10527;52.124;5.196;2024-01-07T14:00:57;1.47;;;1.33;;
20731;SDS011;10527;52.124;5.196;2024-01-07T14:03:25;2.90;;;1.40;;
20731;SDS011;10527;52.124;5.196;2024-01-07T14:05:53;3.73;;;1.50;;
20731;SDS011;10527;52.124;5.196;2024-01-07T14:08:21;2.37;;;1.43;;
20731;SDS011;10527;52.124;5.196;2024-01-07T14:10:48;2.13;;;1.60;;
20731;SDS011;10527;52.124;5.196;2024-01-07T14:13:18;1.93;;;1.30;;
20731;SDS011;10527;52.124;5.196;2024-01-07T14:15:46;1.97;;;1.30;;
20731;SDS011;10527;52.124;5.196;2024-01-07T14:18:15;1.97;;;1.43;;
20731;SDS011;10527;52.124;5.196;2024-01-07T14:20:43;1.60;;;1.20;;
20731;SDS011;10527;52.124;5.196;2024-01-07T14:23:13;2.07;;;1.40;;
20731;SDS011;10527;52.124;5.196;2024-01-07T14:25:44;1.30;;;1.20;;
20731;SDS011;10527;52.124;5.196;2024-01-07T14:28:12;2.57;;;1.60;;
20731;SDS011;10527;52.124;5.196;2024-01-07T14:30:39;1.93;;;1.30;;
20731;SDS011;10527;52.124;5.196;2024-01-07T14:33:07;2.03;;;1.30;;
20731;SDS011;10527;52.124;5.196;2024-01-07T14:35:35;1.80;;;1.37;;
20731;SDS011;10527;52.124;5.196;2024-01-07T14:38:02;2.43;;;1.33;;
20731;SDS011;10527;52.124;5.196;2024-01-07T14:40:33;1.53;;;1.30;;
20731;SDS011;10527;52.124;5.196;2024-01-07T14:43:00;2.83;;;1.40;;
20731;SDS011;10527;52.124;5.196;2024-01-07T14:45:31;1.70;;;1.40;;
20731;SDS011;10527;52.124;5.196;2024-01-07T14:47:59;1.57;;;1.37;;
20731;SDS011;10527;52.124;5.196;2024-01-07T14:50:27;2.40;;;1.30;;
20731;SDS011;10527;52.124;5.196;2024-01-07T14:53:04;2.20;;;1.50;;
20731;SDS011;10527;52.124;5.196;2024-01-07T14:55:32;1.33;;;1.10;;
20731;SDS011;10527;52.124;5.196;2024-01-07T14:57:59;2.57;;;1.50;;
20731;SDS011;10527;52.124;5.196;2024-01-07T15:00:27;1.57;;;1.30;;
20731;SDS011;10527;52.124;5.196;2024-01-07T15:02:55;1.93;;;1.50;;
20731;SDS011;10527;52.124;5.196;2024-01-07T15:05:24;1.67;;;1.40;;
20731;SDS011;10527;52.124;5.196;2024-01-07T15:07:52;2.73;;;1.70;;
20731;SDS011;10527;52.124;5.196;2024-01-07T15:10:19;2.70;;;1.57;;
20731;SDS011;10527;52.124;5.196;2024-01-07T15:12:47;2.58;;;1.90;;
20731;SDS011;10527;52.124;5.196;2024-01-07T15:15:27;2.43;;;1.67;;
20731;SDS011;10527;52.124;5.196;2024-01-07T15:17:56;3.23;;;1.87;;